Time;durP1;ratioP1;P1;durP2;ratioP2;P2;SDS_P1;SDS_P2;PMS_P1;PMS_P2;Temp;Humidity;BMP_temperature;BMP_pressure;BME280_temperature;BME280_humidity;BME280_pressure;Samples;Min_cycle;Max_cycle;Signal;HPM_P1;HPM_P2
2023/10/07 00:03:07;;;;;;;7.70;4.60;;;;;;;10.44;86.26;99905.08;108607;1251;72465;-60
2023/10/07 00:05:40;;;;;;;6.80;4.50;;;;;;;10.45;86.37;99910.85;108555;1253;61539;-60
2023/10/07 00:08:12;;;;;;;6.00;4.30;;;;;;;10.42;86.48;99911.98;108469;1253;59766;-61
2023/10/07 00:10:40;;;;;;;7.20;4.60;;;;;;;10.41;87.40;99899.93;108365;1253;72862;-61
2023/10/07 00:13:14;;;;;;;;;;;;;;;10.40;88.02;99892.27;108428;1253;69531;-60
2023/10/07 00:15:47;;;;;;;8.50;4.70;;;;;;;10.39;89.36;99883.73;108246;1253;72356;-60
2023/10/07 00:18:16;;;;;;;9.30;4.60;;;;;;;10.39;88.03;99876.90;108482;1254;60593;-60
2023/10/07 00:20:55;;;;;;;9.80;5.00;;;;;;;10.38;88.73;99872.38;108367;1254;60114;-60
2023/10/07 00:23:26;;;;;;;9.10;4.70;;;;;;;10.38;88.48;99869.58;108342;1254;74100;-61
2023/10/07 00:25:55;;;;;;;8.90;4.50;;;;;;;10.38;88.83;99863.95;108193;1253;69843;-62
2023/10/07 00:28:28;;;;;;;10.90;5.30;;;;;;;10.39;88.58;99860.79;108297;1254;71388;-61
2023/10/07 00:31:01;;;;;;;9.50;5.00;;;;;;;10.35;89.37;99851.48;108331;1254;61548;-60
2023/10/07 00:37:02;;;;;;;10.00;5.30;;;;;;;10.40;89.28;99848.14;108369;1255;74553;-61
2023/10/07 00:39:19;;;;;;;7.90;4.70;;;;;;;10.40;89.52;99848.83;108104;1254;68112;-60
2023/10/07 00:41:52;;;;;;;6.60;4.80;;;;;;;10.42;88.97;99846.45;107917;1254;72780;-61
2023/10/07 00:44:22;;;;;;;7.80;4.60;;;;;;;10.43;89.58;99839.08;108356;1254;60670;-61
2023/10/07 00:52:32;;;;;;;9.30;4.30;;;;;;;10.49;88.59;99824.61;108117;1254;69394;-61
2023/10/07 01:00:30;;;;;;;5.90;4.40;;;;;;;10.59;87.98;99816.55;108408;1253;58656;-60
2023/10/07 01:03:16;;;;;;;6.10;3.70;;;;;;;10.61;87.91;99812.21;108225;1253;73798;-61
2023/10/07 01:08:34;;;;;;;6.90;4.10;;;;;;;10.62;88.53;99800.77;108242;1253;72076;-61
2023/10/07 01:11:19;;;;;;;6.60;4.00;;;;;;;10.64;88.16;99798.61;108172;1254;60659;-61
2023/10/07 01:13:56;;;;;;;4.70;3.80;;;;;;;10.64;88.47;99798.26;108417;1253;60278;-61
2023/10/07 01:16:44;;;;;;;8.90;4.10;;;;;;;10.64;88.72;99798.43;108495;1251;73614;-62
2023/10/07 01:19:26;;;;;;;4.40;3.60;;;;;;;10.65;89.43;99786.48;108370;1252;70307;-62
2023/10/07 01:21:55;;;;;;;6.90;3.80;;;;;;;10.68;89.67;99784.42;108436;1253;71463;-62
2023/10/07 01:30:16;;;;;;;5.90;3.90;;;;;;;10.77;89.85;99759.85;108447;1253;73722;-61
2023/10/07 01:35:39;;;;;;;10.20;4.00;;;;;;;10.77;91.51;99749.16;108120;1253;72633;-62
2023/10/07 01:38:07;;;;;;;11.40;4.10;;;;;;;10.76;92.66;99753.06;108435;1253;60579;-62
2023/10/07 01:43:19;;;;;;;9.70;4.20;;;;;;;10.76;94.35;99744.50;108559;1252;74460;-62
2023/10/07 01:45:49;;;;;;;6.30;4.00;;;;;;;10.78;95.15;99736.70;108145;1254;69011;-62
2023/10/07 01:48:17;;;;;;;9.20;4.20;;;;;;;10.82;95.19;99731.23;108514;1251;73393;-62
2023/10/07 01:50:46;;;;;;;5.30;4.10;;;;;;;10.85;95.41;99724.27;108417;1252;61456;-62
2023/10/07 01:53:16;;;;;;;8.40;4.60;;;;;;;10.86;96.38;99715.98;108445;1252;58776;-62
2023/10/07 01:55:45;;;;;;;5.00;4.00;;;;;;;10.87;97.90;99705.98;108509;1253;73699;-61
2023/10/07 01:58:13;;;;;;;7.50;4.00;;;;;;;10.89;97.28;99696.20;108577;1254;69635;-62
2023/10/07 02:00:46;;;;;;;7.50;4.50;;;;;;;10.95;97.39;99687.90;108530;1253;73364;-62
2023/10/07 02:03:16;;;;;;;7.30;4.20;;;;;;;10.99;96.91;99676.86;108556;1253;61650;-62
2023/10/07 02:05:48;;;;;;;9.40;4.30;;;;;;;10.92;97.65;99666.63;108513;1253;59843;-63
2023/10/07 02:08:26;;;;;;;6.00;4.50;;;;;;;10.89;97.38;99663.58;108573;1254;73716;-62
2023/10/07 02:10:57;;;;;;;6.80;4.30;;;;;;;10.85;98.13;99659.92;108592;1252;69546;-62
2023/10/07 02:13:27;;;;;;;6.60;4.20;;;;;;;10.83;98.14;99668.23;108576;1251;72235;-62
2023/10/07 02:15:55;;;;;;;9.10;3.90;;;;;;;10.87;98.31;99662.28;108468;1253;62366;-62
2023/10/07 02:18:27;;;;;;;;;;;;;;;10.91;98.05;99654.93;108347;1254;59776;-62
2023/10/07 02:21:08;;;;;;;5.90;3.90;;;;;;;10.88;98.96;99663.63;108534;1252;74071;-62
2023/10/07 02:26:14;;;;;;;7.50;4.40;;;;;;;10.88;98.17;99679.23;108425;1252;73513;-62
2023/10/07 02:28:44;;;;;;;6.80;4.60;;;;;;;10.80;99.59;99674.86;108529;1253;61352;-62
2023/10/07 02:31:18;;;;;;;7.50;4.30;;;;;;;10.73;99.95;99663.25;108498;1254;59704;-62
2023/10/07 02:33:53;;;;;;;5.40;4.30;;;;;;;10.71;100.00;99662.29;108546;1253;74008;-62
2023/10/07 02:36:36;;;;;;;6.70;3.90;;;;;;;10.74;100.00;99652.71;108540;1252;70124;-62
2023/10/07 02:39:18;;;;;;;11.00;4.30;;;;;;;10.74;100.00;99645.33;108433;1254;72488;-62
2023/10/07 02:41:47;;;;;;;9.40;4.60;;;;;;;10.72;100.00;99634.53;108406;1253;60577;-62
2023/10/07 02:44:16;;;;;;;7.50;5.00;;;;;;;10.75;100.00;99626.00;108314;1252;58672;-62
2023/10/07 02:46:52;;;;;;;7.50;4.50;;;;;;;10.77;100.00;99624.31;108309;1251;73919;-62
2023/10/07 02:49:21;;;;;;;8.60;4.70;;;;;;;10.77;100.00;99619.77;108404;1252;70662;-62
2023/10/07 02:52:16;;;;;;;5.60;4.40;;;;;;;10.75;100.00;99616.71;108301;1253;71506;-62
2023/10/07 02:54:41;;;;;;;9.50;5.10;;;;;;;10.75;100.00;99616.88;108438;1253;61125;-62
2023/10/07 02:57:38;;;;;;;13.90;5.10;;;;;;;10.75;100.00;99608.63;108535;1253;59636;-62
2023/10/07 03:00:10;;;;;;;10.00;4.80;;;;;;;10.72;100.00;99603.88;108363;1252;74508;-62
2023/10/07 03:02:48;;;;;;;7.90;4.60;;;;;;;10.68;100.00;99597.52;108536;1253;71483;-61
2023/10/07 03:05:29;;;;;;;6.30;4.20;;;;;;;10.69;100.00;99586.97;108610;1251;72165;-61
2023/10/07 03:08:02;;;;;;;8.30;4.80;;;;;;;10.67;100.00;99578.84;108600;1251;60615;-61
2023/10/07 03:10:43;;;;;;;9.80;5.30;;;;;;;10.68;100.00;99566.85;108572;1251;60348;-61
2023/10/07 03:13:15;;;;;;;8.20;4.60;;;;;;;10.73;100.00;99566.80;108487;1251;72806;-61
2023/10/07 03:15:46;;;;;;;9.50;5.30;;;;;;;10.78;100.00;99560.10;108426;1251;69851;-62
2023/10/07 03:18:24;;;;;;;6.50;5.10;;;;;;;10.84;100.00;99557.90;108398;1251;72346;-61
2023/10/07 03:21:06;;;;;;;7.30;5.10;;;;;;;10.88;100.00;99551.79;108518;1251;60987;-63
2023/10/07 03:23:37;;;;;;;8.20;5.00;;;;;;;10.93;100.00;99549.11;108406;1251;59680;-64
2023/10/07 03:28:36;;;;;;;9.40;4.90;;;;;;;11.05;100.00;99532.22;108513;1251;69202;-64
2023/10/07 03:31:11;;;;;;;8.20;4.50;;;;;;;11.10;100.00;99524.61;108543;1251;71941;-65
2023/10/07 03:33:48;;;;;;;7.10;4.40;;;;;;;11.14;100.00;99514.27;108477;1252;62464;-62
2023/10/07 03:38:44;;;;;;;11.30;4.80;;;;;;;11.20;100.00;99498.73;108488;1251;74503;-62
2023/10/07 03:41:12;;;;;;;11.00;5.00;;;;;;;11.24;100.00;99492.55;108441;1250;69151;-63
2023/10/07 03:43:41;;;;;;;7.70;5.00;;;;;;;11.26;100.00;99489.84;108312;1253;72350;-63
2023/10/07 03:46:09;;;;;;;10.90;4.70;;;;;;;11.28;100.00;99491.48;108381;1251;61419;-63
2023/10/07 03:48:39;;;;;;;10.70;6.20;;;;;;;11.33;100.00;99486.00;108442;1251;59819;-63
2023/10/07 03:51:08;;;;;;;11.00;5.10;;;;;;;11.34;100.00;99486.65;108496;1251;74597;-63
2023/10/07 03:53:44;;;;;;;10.20;5.50;;;;;;;11.37;100.00;99483.16;108643;1251;70231;-63
2023/10/07 03:56:13;;;;;;;6.40;4.20;;;;;;;11.43;100.00;99473.94;108567;1251;72107;-62
2023/10/07 03:58:44;;;;;;;10.50;5.30;;;;;;;11.46;100.00;99471.13;108502;1253;61436;-63
2023/10/07 04:01:11;;;;;;;8.30;4.40;;;;;;;11.48;100.00;99463.88;108656;1251;58764;-62
2023/10/07 04:03:40;;;;;;;6.00;4.60;;;;;;;11.51;100.00;99455.10;108549;1251;74087;-63
2023/10/07 04:06:09;;;;;;;;;;;;;;;11.59;100.00;99445.77;108594;1252;69167;-63
2023/10/07 04:08:39;;;;;;;9.80;4.50;;;;;;;11.64;100.00;99447.77;108558;1251;73302;-62
2023/10/07 04:11:16;;;;;;;6.80;4.70;;;;;;;11.66;100.00;99441.35;108566;1253;61472;-62
2023/10/07 04:13:46;;;;;;;7.00;4.40;;;;;;;11.71;100.00;99437.60;108529;1252;60661;-62
2023/10/07 04:16:23;;;;;;;7.20;4.60;;;;;;;11.74;100.00;99430.80;108562;1252;73742;-62
2023/10/07 04:18:52;;;;;;;10.20;4.70;;;;;;;11.78;100.00;99420.05;108459;1251;70475;-63
2023/10/07 04:21:21;;;;;;;7.30;5.10;;;;;;;11.83;100.00;99412.74;108453;1253;72401;-63
2023/10/07 04:23:48;;;;;;;7.20;4.50;;;;;;;11.92;100.00;99416.39;108557;1253;61582;-62
2023/10/07 04:26:20;;;;;;;6.60;4.40;;;;;;;11.95;100.00;99414.08;108519;1253;59726;-63
2023/10/07 04:28:48;;;;;;;11.50;5.10;;;;;;;12.00;100.00;99408.02;108537;1252;73625;-63
2023/10/07 04:31:16;;;;;;;5.10;4.30;;;;;;;12.05;100.00;99390.21;108677;1251;69122;-63
2023/10/07 04:33:48;;;;;;;;;;;;;;;12.12;100.00;99374.60;108601;1251;72913;-63
2023/10/07 04:36:18;;;;;;;5.70;4.20;;;;;;;12.12;100.00;99367.39;108507;1252;61748;-63
2023/10/07 04:39:15;;;;;;;7.60;4.70;;;;;;;12.13;100.00;99368.20;108508;1252;59287;-63
2023/10/07 04:41:36;;;;;;;6.30;3.70;;;;;;;12.17;100.00;99366.92;108369;1252;74530;-61
2023/10/07 04:46:56;;;;;;;8.40;4.30;;;;;;;12.18;100.00;99358.23;108396;1251;72599;-61
2023/10/07 04:49:35;;;;;;;8.40;4.40;;;;;;;12.24;100.00;99349.65;108541;1251;61848;-65
2023/10/07 04:52:06;;;;;;;7.40;4.40;;;;;;;12.31;100.00;99342.65;108414;1252;60226;-65
2023/10/07 04:54:35;;;;;;;10.10;4.80;;;;;;;12.31;100.00;99337.67;108406;1251;74157;-64
2023/10/07 04:57:09;;;;;;;11.00;4.90;;;;;;;12.34;100.00;99334.03;108547;1253;69224;-65
2023/10/07 04:59:45;;;;;;;7.80;4.40;;;;;;;12.38;100.00;99333.29;108556;1253;71483;-65
2023/10/07 05:02:15;;;;;;;7.90;5.60;;;;;;;12.39;100.00;99323.55;108509;1253;61807;-67
2023/10/07 05:04:50;;;;;;;8.10;5.00;;;;;;;12.39;100.00;99315.27;108657;1251;60704;-63
2023/10/07 05:07:26;;;;;;;11.30;5.60;;;;;;;12.46;100.00;99311.20;108463;1252;73637;-65
2023/10/07 05:09:56;;;;;;;8.90;4.90;;;;;;;12.49;100.00;99307.72;108380;1252;69127;-64
2023/10/07 05:12:23;;;;;;;11.00;4.50;;;;;;;12.52;100.00;99309.29;108587;1254;72908;-65
2023/10/07 05:14:51;;;;;;;9.40;4.80;;;;;;;12.54;100.00;99300.25;108502;1253;60474;-64
2023/10/07 05:17:22;;;;;;;9.40;5.50;;;;;;;12.57;100.00;99296.55;108390;1253;59729;-64
2023/10/07 05:19:51;;;;;;;10.30;5.90;;;;;;;12.62;100.00;99297.14;108372;1252;73559;-66
2023/10/07 05:22:18;;;;;;;13.90;5.60;;;;;;;12.64;100.00;99296.30;108376;1251;69731;-65
2023/10/07 05:24:51;;;;;;;7.70;5.30;;;;;;;12.69;100.00;99295.48;108359;1253;71375;-67
2023/10/07 05:27:19;;;;;;;9.30;5.30;;;;;;;12.69;100.00;99291.27;108415;1251;61902;-64
2023/10/07 05:29:46;;;;;;;8.70;5.80;;;;;;;12.69;100.00;99277.88;108397;1253;60038;-65
2023/10/07 05:32:14;;;;;;;9.00;5.60;;;;;;;12.73;100.00;99274.33;108468;1251;72554;-67
2023/10/07 05:34:42;;;;;;;11.00;5.30;;;;;;;12.78;100.00;99272.32;108590;1252;69079;-68
2023/10/07 05:37:14;;;;;;;10.10;5.30;;;;;;;12.77;100.00;99266.70;108492;1253;71507;-69
2023/10/07 05:42:55;;;;;;;9.10;4.80;;;;;;;12.94;100.00;99247.25;103308;1292;601083;-67
2023/10/07 05:45:23;;;;;;;6.00;4.90;;;;;;;13.02;100.00;99238.67;104496;1269;61563;-65
2023/10/07 05:47:53;;;;;;;7.70;5.00;;;;;;;13.08;100.00;99235.91;103751;1266;58855;-69
2023/10/07 05:50:23;;;;;;;8.40;4.60;;;;;;;13.11;100.00;99231.16;103658;1283;71881;-63
2023/10/07 05:52:56;;;;;;;10.80;4.90;;;;;;;13.13;100.00;99220.95;104866;1270;69052;-66
2023/10/07 05:55:24;;;;;;;9.30;5.00;;;;;;;13.20;100.00;99217.23;103364;1273;415753;-66
2023/10/07 05:57:52;;;;;;;;;;;;;;;13.19;100.00;99203.37;103901;1264;61072;-64
2023/10/07 06:00:21;;;;;;;7.90;4.40;;;;;;;13.21;100.00;99197.44;104010;1265;59418;-63
2023/10/07 06:02:49;;;;;;;8.30;5.20;;;;;;;13.20;100.00;99193.28;103936;1263;71877;-63
2023/10/07 06:05:19;;;;;;;8.70;5.30;;;;;;;13.23;100.00;99193.42;103912;1268;69465;-65
2023/10/07 06:07:47;;;;;;;9.10;5.00;;;;;;;13.27;100.00;99193.59;103864;1263;72452;-63
2023/10/07 06:10:15;;;;;;;7.10;4.50;;;;;;;13.26;100.00;99189.06;104435;1256;61404;-64
2023/10/07 06:12:43;;;;;;;9.20;5.20;;;;;;;13.26;100.00;99185.18;104539;1263;60673;-64
2023/10/07 06:15:10;;;;;;;7.60;5.00;;;;;;;13.23;100.00;99188.52;104320;1257;73747;-65
2023/10/07 06:17:38;;;;;;;9.10;4.70;;;;;;;13.23;100.00;99184.82;104689;1251;69133;-64
2023/10/07 06:20:14;;;;;;;;;;;;;;;13.26;100.00;99181.15;104521;1256;72396;-63
2023/10/07 06:22:45;;;;;;;7.30;4.70;;;;;;;13.24;100.00;99175.62;104491;1256;61437;-64
2023/10/07 06:25:14;;;;;;;6.00;4.60;;;;;;;13.27;100.00;99161.73;104432;1266;59885;-64
2023/10/07 06:27:43;;;;;;;5.80;4.70;;;;;;;13.29;100.00;99159.48;104488;1259;73717;-64
2023/10/07 06:30:16;;;;;;;7.30;4.90;;;;;;;13.32;100.00;99154.23;104412;1265;68116;-64
2023/10/07 06:32:44;;;;;;;8.30;4.70;;;;;;;13.34;100.00;99149.89;104678;1256;72500;-66
2023/10/07 06:35:21;;;;;;;6.50;4.40;;;;;;;13.38;100.00;99144.04;104325;1259;61092;-64
2023/10/07 06:37:51;;;;;;;14.80;5.50;;;;;;;13.37;100.00;99145.07;104384;1256;59946;-64
2023/10/07 06:40:28;;;;;;;9.70;5.30;;;;;;;13.39;100.00;99142.52;104402;1256;72785;-65
2023/10/07 06:43:01;;;;;;;9.10;4.60;;;;;;;13.41;100.00;99144.00;108401;1252;69255;-65
2023/10/07 06:45:35;;;;;;;9.20;4.40;;;;;;;13.46;100.00;99142.27;106599;1257;72555;-63
2023/10/07 06:48:06;;;;;;;12.70;5.50;;;;;;;13.46;100.00;99141.75;107329;1251;60437;-65
2023/10/07 06:50:35;;;;;;;11.30;5.20;;;;;;;13.49;100.00;99139.44;107766;1256;59724;-64
2023/10/07 06:53:02;;;;;;;6.10;4.50;;;;;;;13.53;100.00;99141.13;104497;1256;72860;-64
2023/10/07 06:55:36;;;;;;;8.30;4.30;;;;;;;13.56;100.00;99144.09;104568;1256;68328;-65
2023/10/07 06:58:07;;;;;;;9.70;4.70;;;;;;;13.58;100.00;99133.38;104391;1257;71479;-66
2023/10/07 07:00:47;;;;;;;7.00;4.60;;;;;;;13.61;100.00;99133.05;104324;1262;61833;-66
2023/10/07 07:03:18;;;;;;;8.10;3.90;;;;;;;13.66;100.00;99128.88;104374;1257;59787;-66
2023/10/07 07:05:46;;;;;;;8.70;4.70;;;;;;;13.66;100.00;99131.90;104375;1258;71720;-65
2023/10/07 07:08:14;;;;;;;8.00;5.20;;;;;;;13.67;100.00;99129.85;104330;1264;69201;-64
2023/10/07 07:10:42;;;;;;;;;;;;;;;13.68;100.00;99125.71;104408;1258;72451;-65
2023/10/07 07:13:13;;;;;;;7.80;4.50;;;;;;;13.70;100.00;99122.77;104524;1255;60974;-66
2023/10/07 07:15:46;;;;;;;7.30;4.60;;;;;;;13.73;100.00;99122.98;104569;1256;60084;-65
2023/10/07 07:23:24;;;;;;;6.40;4.50;;;;;;;13.82;100.00;99111.11;108381;1254;71780;-63
2023/10/07 07:28:33;;;;;;;5.20;3.80;;;;;;;13.86;100.00;99094.13;104516;1257;59700;-63
2023/10/07 07:31:00;;;;;;;6.50;4.10;;;;;;;13.85;100.00;99070.59;105890;1255;72811;-62
2023/10/07 07:33:37;;;;;;;8.30;4.60;;;;;;;13.95;100.00;99066.55;107270;1259;69271;-63
2023/10/07 07:38:54;;;;;;;9.30;4.00;;;;;;;14.05;100.00;99056.39;104743;1254;60444;-63
2023/10/07 07:41:34;;;;;;;7.20;4.00;;;;;;;14.06;100.00;99050.88;104702;1255;59681;-65
2023/10/07 07:44:08;;;;;;;6.60;4.50;;;;;;;14.05;100.00;99045.14;104798;1257;73687;-64
2023/10/07 07:46:51;;;;;;;8.70;4.10;;;;;;;14.03;100.00;99043.13;104954;1253;69041;-66
2023/10/07 07:49:28;;;;;;;5.90;4.00;;;;;;;14.05;100.00;99043.38;104503;1257;73152;-64
2023/10/07 07:51:59;;;;;;;6.20;3.50;;;;;;;14.08;100.00;99041.61;104519;1258;61502;-65
2023/10/07 07:54:29;;;;;;;6.80;3.90;;;;;;;14.06;100.00;99041.38;104615;1253;60655;-65
2023/10/07 07:56:59;;;;;;;4.90;4.10;;;;;;;13.97;100.00;99042.64;104697;1259;73669;-65
2023/10/07 07:59:32;;;;;;;6.70;3.60;;;;;;;14.00;100.00;99046.82;104307;1267;69041;-66
2023/10/07 08:02:24;;;;;;;10.40;3.40;;;;;;;14.02;100.00;99050.38;104493;1275;73406;-61
2023/10/07 08:04:59;;;;;;;6.90;4.30;;;;;;;13.98;100.00;99036.80;104544;1257;61430;-63
2023/10/07 08:07:27;;;;;;;6.20;4.30;;;;;;;13.93;100.00;99028.79;104418;1257;60694;-64
2023/10/07 08:09:57;;;;;;;6.70;4.40;;;;;;;13.91;100.00;99024.20;104357;1257;72873;-62
2023/10/07 08:12:29;;;;;;;6.50;4.40;;;;;;;13.93;100.00;99024.77;104496;1270;69051;-62
2023/10/07 08:15:09;;;;;;;7.10;4.30;;;;;;;13.89;100.00;99007.60;104508;1256;73585;-63
2023/10/07 08:17:37;;;;;;;6.10;4.10;;;;;;;13.88;100.00;99006.59;104822;1254;61428;-63
2023/10/07 08:23:23;;;;;;;7.80;4.50;;;;;;;13.35;100.00;98996.47;101519;1295;600487;-65
2023/10/07 08:25:58;;;;;;;5.30;3.90;;;;;;;13.85;100.00;98984.61;103856;1269;61405;-67
2023/10/07 08:28:41;;;;;;;7.10;4.20;;;;;;;13.90;100.00;98977.23;103679;1270;59756;-62
2023/10/07 08:31:19;;;;;;;7.60;4.30;;;;;;;13.97;100.00;98979.58;104078;1266;70909;-65
2023/10/07 08:33:53;;;;;;;6.20;4.30;;;;;;;14.02;100.00;98966.20;104065;1266;67963;-62
2023/10/07 08:36:28;;;;;;;6.20;4.60;;;;;;;14.07;100.00;98971.84;103953;1269;353353;-63
2023/10/07 08:38:59;;;;;;;8.70;4.40;;;;;;;14.05;100.00;98971.10;104049;1278;61563;-65
2023/10/07 08:41:27;;;;;;;6.40;4.30;;;;;;;14.08;100.00;98956.25;104222;1258;59693;-65
2023/10/07 08:44:15;;;;;;;;;;;;;;;14.09;100.00;98938.59;104047;1264;72373;-63
2023/10/07 08:46:52;;;;;;;8.40;4.70;;;;;;;14.08;100.00;98932.69;107232;1260;69590;-62
2023/10/07 08:49:27;;;;;;;4.60;4.10;;;;;;;14.10;100.00;98928.13;104473;1263;72336;-62
2023/10/07 08:52:08;;;;;;;7.50;4.90;;;;;;;14.15;100.00;98918.94;104778;1255;60488;-63
2023/10/07 08:54:37;;;;;;;7.90;4.70;;;;;;;14.10;100.00;98914.55;104684;1260;60098;-62
2023/10/07 08:57:16;;;;;;;;;;;;;;;14.13;100.00;98908.70;104333;1262;73726;-61
2023/10/07 08:59:49;;;;;;;5.50;4.10;;;;;;;14.15;100.00;98904.73;104130;1255;69393;-61
2023/10/07 09:02:27;;;;;;;6.70;4.50;;;;;;;14.22;100.00;98895.95;104063;1274;72717;-61
2023/10/07 09:04:57;;;;;;;6.90;4.80;;;;;;;14.26;100.00;98897.23;104175;1273;61501;-63
2023/10/07 09:07:36;;;;;;;5.40;3.50;;;;;;;14.32;100.00;98893.30;104117;1257;59753;-64
2023/10/07 09:10:10;;;;;;;12.00;4.60;;;;;;;14.39;100.00;98886.27;104021;1257;73129;-65
2023/10/07 09:12:46;;;;;;;7.10;4.10;;;;;;;14.48;100.00;98880.34;104097;1261;69579;-62
2023/10/07 09:15:21;;;;;;;8.00;4.60;;;;;;;14.54;100.00;98882.77;104078;1273;73010;-64
2023/10/07 09:17:49;;;;;;;6.50;4.60;;;;;;;14.68;100.00;98879.52;104114;1270;61475;-61
2023/10/07 09:20:29;;;;;;;;;;;;;;;14.76;100.00;98870.25;104227;1260;59894;-63
2023/10/07 09:23:01;;;;;;;8.80;4.60;;;;;;;14.85;100.00;98874.23;104205;1260;73525;-64
2023/10/07 09:25:31;;;;;;;8.30;4.10;;;;;;;14.93;100.00;98876.47;107690;1256;70507;-63
2023/10/07 09:28:01;;;;;;;10.00;5.20;;;;;;;15.10;100.00;98869.05;105144;1261;72910;-63
2023/10/07 09:30:37;;;;;;;7.50;3.80;;;;;;;15.16;100.00;98863.12;104117;1262;61515;-62
2023/10/07 09:33:21;;;;;;;6.70;4.40;;;;;;;15.22;100.00;98864.98;104724;1256;59855;-62
2023/10/07 09:38:41;;;;;;;11.00;4.40;;;;;;;15.44;100.00;98854.52;104496;1252;68089;-61
2023/10/07 09:41:12;;;;;;;8.50;4.00;;;;;;;15.54;100.00;98840.48;104521;1258;72526;-64
2023/10/07 09:43:43;;;;;;;7.80;4.20;;;;;;;15.62;100.00;98840.60;105083;1253;60392;-66
2023/10/07 09:46:11;;;;;;;7.10;4.10;;;;;;;15.72;100.00;98838.64;108354;1252;58535;-65
2023/10/07 09:49:00;;;;;;;5.70;4.10;;;;;;;15.84;100.00;98837.89;107190;1258;73274;-63
2023/10/07 09:51:29;;;;;;;7.70;4.30;;;;;;;15.93;100.00;98832.21;104397;1257;68537;-66
2023/10/07 09:54:49;;;;;;;10.30;4.50;;;;;;;16.00;100.00;98821.10;104966;1254;71455;-63
2023/10/07 09:57:42;;;;;;;6.60;4.60;;;;;;;16.04;100.00;98814.79;104734;1256;61506;-63
2023/10/07 10:03:39;;;;;;;8.00;5.10;;;;;;;16.09;100.00;98801.84;104299;1267;72753;-62
2023/10/07 10:06:33;;;;;;;7.50;4.30;;;;;;;16.14;100.00;98787.85;104535;1257;68115;-62
2023/10/07 10:09:09;;;;;;;4.80;4.20;;;;;;;16.24;100.00;98785.65;104355;1261;72254;-62
2023/10/07 10:17:00;;;;;;;6.70;4.00;;;;;;;16.58;100.00;98767.30;104540;1256;72884;-62
2023/10/07 10:19:44;;;;;;;7.70;4.00;;;;;;;16.76;100.00;98757.52;104413;1271;69794;-61
2023/10/07 10:22:13;;;;;;;13.50;4.10;;;;;;;16.83;100.00;98751.10;104304;1260;72523;-62
2023/10/07 10:24:42;;;;;;;5.40;3.80;;;;;;;16.99;100.00;98743.79;104646;1255;61790;-61
2023/10/07 10:27:11;;;;;;;7.00;4.70;;;;;;;17.09;100.00;98731.09;104775;1260;59981;-63
2023/10/07 10:29:52;;;;;;;7.70;4.50;;;;;;;17.17;100.00;98720.69;104792;1259;72790;-63
2023/10/07 10:32:30;;;;;;;6.00;4.00;;;;;;;17.31;100.00;98709.58;104397;1264;69169;-63
2023/10/07 10:34:59;;;;;;;;;;;;;;;17.45;100.00;98704.17;104596;1255;73034;-65
2023/10/07 10:37:29;;;;;;;6.30;4.00;;;;;;;17.51;100.00;98697.98;104418;1268;62369;-65
2023/10/07 10:40:05;;;;;;;5.10;3.80;;;;;;;17.61;100.00;98686.80;104490;1254;59824;-64
2023/10/07 10:42:43;;;;;;;6.50;4.10;;;;;;;17.69;100.00;98681.73;104364;1259;72808;-66
2023/10/07 10:45:21;;;;;;;6.70;3.90;;;;;;;17.81;99.90;98679.77;107101;1252;69226;-65
2023/10/07 10:47:53;;;;;;;9.00;4.70;;;;;;;17.94;99.55;98677.08;108334;1254;72354;-65
2023/10/07 10:50:23;;;;;;;8.50;3.80;;;;;;;18.05;98.00;98672.88;106873;1254;61470;-62
2023/10/07 10:52:54;;;;;;;4.50;3.70;;;;;;;18.15;99.37;98676.48;105139;1257;60712;-65
2023/10/07 10:55:24;;;;;;;6.10;3.90;;;;;;;18.21;98.40;98680.30;104782;1259;71835;-63
2023/10/07 10:57:55;;;;;;;6.90;3.90;;;;;;;18.26;96.38;98678.95;105151;1257;69073;-62
2023/10/07 11:00:22;;;;;;;9.10;3.60;;;;;;;18.27;92.81;98675.02;104613;1273;72379;-66
2023/10/07 11:02:54;;;;;;;6.80;4.00;;;;;;;18.32;90.59;98665.89;104325;1254;61452;-63
2023/10/07 11:05:22;;;;;;;11.70;4.10;;;;;;;18.38;90.63;98670.13;104312;1254;59783;-63
2023/10/07 11:07:50;;;;;;;;;;;;;;;18.44;91.50;98658.34;104643;1258;71806;-63
2023/10/07 11:10:25;;;;;;;10.40;3.90;;;;;;;18.51;91.62;98659.19;104355;1261;69233;-63
2023/10/07 11:12:54;;;;;;;7.00;3.20;;;;;;;18.50;90.11;98656.62;104443;1255;72871;-64
2023/10/07 11:15:26;;;;;;;6.50;3.20;;;;;;;18.61;89.31;98656.85;104357;1254;61438;-65
2023/10/07 11:17:58;;;;;;;6.20;3.60;;;;;;;18.67;88.84;98651.30;104910;1257;59719;-63
2023/10/07 11:20:37;;;;;;;10.80;3.60;;;;;;;18.70;88.29;98642.49;104210;1267;73675;-65
2023/10/07 11:23:10;;;;;;;11.90;3.70;;;;;;;18.81;87.63;98635.33;104374;1266;68420;-64
2023/10/07 11:25:41;;;;;;;11.50;3.90;;;;;;;18.93;87.62;98636.91;104514;1260;72913;-63
2023/10/07 11:28:15;;;;;;;5.60;3.40;;;;;;;19.00;88.53;98630.88;106168;1254;61378;-64
2023/10/07 11:30:46;;;;;;;7.00;3.70;;;;;;;19.00;87.04;98626.10;104413;1260;59851;-65
2023/10/07 11:33:18;;;;;;;4.00;3.20;;;;;;;19.12;87.67;98631.94;104564;1259;73262;-64
2023/10/07 11:36:06;;;;;;;7.40;3.30;;;;;;;19.15;87.46;98632.71;106882;1254;69624;-65
2023/10/07 11:38:33;;;;;;;11.80;3.70;;;;;;;19.16;87.38;98637.89;104949;1254;72507;-66
2023/10/07 11:41:04;;;;;;;8.70;3.30;;;;;;;19.26;87.55;98633.80;104527;1255;60446;-63
2023/10/07 11:43:43;;;;;;;7.10;2.70;;;;;;;19.30;88.35;98633.20;104537;1254;59749;-65
2023/10/07 11:46:13;;;;;;;7.50;3.90;;;;;;;19.30;89.56;98632.33;104290;1256;72925;-65
2023/10/07 11:48:44;;;;;;;9.00;3.20;;;;;;;19.29;88.91;98629.39;104415;1264;69619;-64
2023/10/07 11:51:12;;;;;;;5.80;2.80;;;;;;;19.34;88.43;98638.17;104599;1258;72313;-65
2023/10/07 11:53:41;;;;;;;5.70;3.40;;;;;;;19.35;86.58;98647.48;104574;1258;61734;-67
2023/10/07 11:56:11;;;;;;;6.10;3.10;;;;;;;19.43;87.52;98647.23;104565;1255;59666;-65
2023/10/07 11:58:42;;;;;;;8.30;3.10;;;;;;;19.43;86.98;98648.67;104376;1259;72986;-66
2023/10/07 12:01:11;;;;;;;7.10;3.30;;;;;;;19.49;87.66;98639.93;104351;1261;69079;-64
2023/10/07 12:03:42;;;;;;;6.60;3.40;;;;;;;19.54;87.73;98651.92;104487;1262;72942;-64
2023/10/07 12:06:11;;;;;;;7.30;3.20;;;;;;;19.48;89.92;98651.65;104582;1263;61748;-64
2023/10/07 12:08:39;;;;;;;7.10;2.60;;;;;;;19.52;90.28;98658.14;104649;1255;59819;-64
2023/10/07 12:11:08;;;;;;;4.40;3.10;;;;;;;19.45;90.44;98669.10;104427;1271;72978;-65
2023/10/07 12:13:36;;;;;;;7.40;3.00;;;;;;;19.33;92.28;98660.50;104501;1259;69304;-69
2023/10/07 12:16:03;;;;;;;10.00;2.70;;;;;;;19.38;94.33;98658.60;104358;1259;72737;-69
2023/10/07 12:18:33;;;;;;;5.40;3.00;;;;;;;19.32;94.60;98656.11;104316;1267;61373;-67
2023/10/07 12:21:02;;;;;;;15.70;3.30;;;;;;;19.28;96.61;98643.52;104409;1254;60139;-66
2023/10/07 12:23:35;;;;;;;12.70;3.00;;;;;;;19.27;98.76;98643.61;104413;1270;72919;-66
2023/10/07 12:26:08;;;;;;;7.20;3.10;;;;;;;19.24;99.55;98645.86;104326;1256;69357;-66
2023/10/07 12:28:37;;;;;;;7.50;3.10;;;;;;;19.30;99.81;98639.31;104404;1270;72742;-67
2023/10/07 12:31:10;;;;;;;4.90;2.80;;;;;;;19.34;99.86;98629.35;104418;1266;61735;-67
2023/10/07 12:33:39;;;;;;;13.10;2.90;;;;;;;19.27;99.92;98623.89;104431;1254;61098;-66
2023/10/07 12:36:12;;;;;;;3.20;2.30;;;;;;;19.36;99.60;98617.58;104299;1257;72939;-68
2023/10/07 12:38:39;;;;;;;5.10;2.50;;;;;;;19.41;99.58;98607.14;104451;1254;69552;-67
2023/10/07 12:41:08;;;;;;;3.60;2.70;;;;;;;19.37;99.12;98608.40;104431;1254;71746;-66
2023/10/07 12:43:37;;;;;;;8.60;3.10;;;;;;;19.42;99.78;98620.67;104457;1258;60737;-66
2023/10/07 12:46:14;;;;;;;5.70;2.90;;;;;;;19.43;99.83;98620.58;104686;1253;60636;-67
2023/10/07 12:48:46;;;;;;;8.30;2.60;;;;;;;19.44;99.17;98620.31;108307;1254;73621;-67
2023/10/07 12:51:14;;;;;;;8.40;3.00;;;;;;;19.48;99.00;98623.13;107586;1254;69162;-65
2023/10/07 12:53:44;;;;;;;9.40;3.20;;;;;;;19.49;99.57;98626.50;104524;1269;72519;-65
2023/10/07 12:56:14;;;;;;;14.80;3.10;;;;;;;19.45;99.19;98629.13;108440;1254;61376;-62